Terminal Aerodrome Forecast
Issued by NWS

Home | Current Version | Previous Version | Graphics & Text | Print | Product List | Glossary Off
Versions: 1 2 3 4 5 6 7 8 9 10 11 12

000
FTUS43 KABR 271127
TAFPIR
TAF
KPIR 271127Z 2712/2812 VRB06KT P6SM BKN080
     FM271700 18008KT P6SM SCT100
     FM280500 VRB05KT P6SM SCT150=

USA.gov is the U.S. government's official web portal to all federal, state and local government web resources and services.